Lihue, HI

1:54 PM HST on September 01, 2014 (GMT -1000)
Lihue | Change Station
CLOSE
Current Station
Airport
Location: Lihue,
Elevation: 102 ft
Nearby Weather Stations

Elev 102 ft 21.98 °N, 159.34 °W | Updated 1 hour ago

Clear
Clear
85 °F
Feels Like 90 °F
N
6
Wind Variable Wind from East

Today
High -- | Low -- °F
--% Chance of Precip.
Yesterday
High -- | Low -- °F
Precip. -- in
6:20 AM 6:53 PM
Waxing Crescent, 45% visible
Pressure 30.02 in
Visibility 10.0 miles
Clouds Clear
Heat Index 90 °F
Dew Point 71 °F
Humidity 63%
Rainfall 0.03 in
Snow Depth Not available.
UV 12 out of 12
Pollen Not available.
Air Quality Not available.
Flu Activity Not available.
METAR PHLI 012253Z 08005KT 10SM CLR 29/22 A3002 RMK AO2 SLP164 T02940217 $

More Conditions Fewer Conditions

Pressure 30.02 in
Visibility 10.0 miles
Clouds Clear
Heat Index 90 °F
Dew Point 71 °F
Humidity 63%
Rainfall 0.03 in
Snow Depth Not available.
UV 12 out of 12
Pollen Not available.
Air Quality Not available.
Flu Activity Not available.
METAR PHLI 012253Z 08005KT 10SM CLR 29/22 A3002 RMK AO2 SLP164 T02940217 $

More Conditions Fewer Conditions

10-Day Weather Forecast

Almanac

Astronomy

Sep. 01, 2014 Rise Set
Actual Time 6:20 AM HST 6:53 PM HST
Civil Twilight 5:57 AM HST 7:16 PM HST
Nautical Twilight 5:31 AM HST 7:42 PM HST
Astronomical Twilight 5:04 AM HST 8:09 PM HST
Moon 12:29 PM HST 11:53 PM HST
Length of Visible Light 13h 18m
Length of Day
12h 33m
Tomorrow will be 1m 13s shorter.
Waxing Crescent, 45% of the Moon is Illuminated
Today
Waxing Crescent
Sep 2
First Quarter
Sep 8
Full
Sep 15
Last Quarter
Sep 24
New

Today's Extremes

State Highs State Lows

Community

WunderPhotos

Upload Photos

1,749,440 photos uploaded!

Nearby

Snow Depth

Station Depth Elevation
No new snow has been reported.

Earthquake Activity

City Distance Mag. Time & Date
No recent earthquake activity has been reported nearby.
Minimum magnitude displayed is 2.5.

Coastal Water Temperatures

Place Temperature
No Stations Reporting

Nearby Weather Stations